ASP weather

Alice Springs Airport
Alice Springs, Northern Territory, Australia

Public forecast

Using degrees Celsius for public forecast. Weather courtesy of forecast.io.

METAR (pilot weather report)

Retrieved 2018/05/21 22:00 UTC (6 minutes ago):

YBAS 212200Z AUTO 31005KT 9999 // NCD 03/M02 Q1028 RF00.0/000.0

TAF (pilot weather forecast)

Retrieved 2018/05/21 18:00 UTC (4 hours ago):

TAF YBAS 211726Z 2118/2218 30005KT CAVOK FM220000 10015G25KT CAVOK FM220800 11010KT CAVOK